Airfield :
LOGIN :

Register | Disclaimer

   EN    FR    IT 

 










Legend :    VFR   Marginal VFR   IFR   Intensive IFR   Very Intensive IFR
Visi :
Ceiling :
>= 8 km
>= 3000ft
5 to 8 km
1000 to 3000 ft
1500m to 5 km
500 to 1000 ft
800 to 1500m
200 to 500 ft
< 800m
< 200 ft
Symbols :   Thunderstorms  Fog  Heavy snow  Heavy precipitations  Wind > 20 kt
SIGMETs :     Misc.  Thunderstorms  Icing  Turbulence  Mountain Waves  Volcanic Ashes






- Airport Elevation : 791 ft
- IATA code : KRK


EPKK - Krakow-Balice

CURRENT METAR :
  • 250530Z 27005KT 230V300 9999 SCT010 BKN030 10/08 Q1024

EXPIRED METARs :
  • 250500Z 25006KT 9999 SCT010 BKN030 10/08 Q1024
  • 250430Z 24007KT 9999 BKN040 09/08 Q1024
  • 250400Z 24007KT 9999 -RA BKN040 09/08 Q1024
  • 250330Z 22004KT 9999 -RA BKN035 08/08 Q1024
  • 250300Z 20004KT 9999 BKN038 08/07 Q1024

TAF TAF EPKK
Valid from the 25 at 06:00 until the 26 at 06:00 UTC


250530Z 2506/2606 26007KT 9999 OVC030
TEMPO 2506/2521 4000 SHRA BKN008 BKN014CB
BECMG 2511/2514 33010KT
PROB40
TEMPO 2511/2519 VRB16G28KT 2000 TSRA BKN004 BKN008CB
BECMG 2518/2521 VRB02KT
TEMPO 2521/2606 -SHRA SCT020CB



MET'MAP, your aeronautical weather chart ! - Copyright ORBIFLY December 2007 - Disclaimer

ORBIFLY MET'MAP TEAM :

Programming & Development : Alexandra Zaïnal
Concept & original design : Baudouin d'Aumeries
Assistance for programming : Marc-Olivier Méhu
Technical & hardware support : Manuel Goepfert

Contact : metmap@orbifly.com




SOURCES & CREDITS :

   NOAA